Time;durP1;ratioP1;P1;durP2;ratioP2;P2;SDS_P1;SDS_P2;PMS_P1;PMS_P2;Temp;Humidity;BMP_temperature;BMP_pressure;BME280_temperature;BME280_humidity;BME280_pressure;Samples;Min_cycle;Max_cycle;Signal;HPM_P1;HPM_P2
2023/08/08 00:03:13;;;;;;;8.57;4.30;;;;;;;12.56;100.00;101246.97;5091440;28;20038;-76
2023/08/08 00:09:00;;;;;;;7.20;4.10;;;;;;;12.55;100.00;101241.81;5091751;28;20150;-75
2023/08/08 00:14:48;;;;;;;9.57;5.00;;;;;;;12.56;100.00;101238.94;5091586;28;20119;-76
2023/08/08 00:20:35;;;;;;;8.82;4.35;;;;;;;12.63;100.00;101234.31;5091251;28;20047;-76
2023/08/08 00:26:22;;;;;;;6.50;4.10;;;;;;;12.77;100.00;101243.13;5090657;28;20043;-76
2023/08/08 00:32:09;;;;;;;10.15;3.90;;;;;;;12.86;100.00;101232.91;5091106;28;20404;-76
2023/08/08 00:34:34;;;;;;;7.20;4.23;;;;;;;12.86;100.00;101233.75;5092859;28;20456;-74
2023/08/08 00:36:59;;;;;;;10.27;4.97;;;;;;;12.84;100.00;101226.94;5095099;28;20281;-75
2023/08/08 00:39:25;;;;;;;10.80;4.67;;;;;;;12.81;100.00;101230.06;5093810;28;20458;-75
2023/08/08 00:41:50;;;;;;;9.82;4.53;;;;;;;12.81;100.00;101225.53;5076255;28;20266;-74
2023/08/08 00:44:15;;;;;;;9.07;4.53;;;;;;;12.83;100.00;101231.50;5094371;28;20495;-74
2023/08/08 00:46:41;;;;;;;9.75;4.13;;;;;;;12.88;100.00;101228.97;5093393;28;20384;-74
2023/08/08 00:49:07;;;;;;;6.72;4.25;;;;;;;12.92;100.00;101223.97;5094387;28;20038;-75
2023/08/08 00:51:32;;;;;;;9.38;4.32;;;;;;;12.98;100.00;101225.78;5075346;28;20093;-75
2023/08/08 00:53:58;;;;;;;6.72;4.22;;;;;;;12.97;100.00;101218.78;5094280;28;20032;-75
2023/08/08 00:56:24;;;;;;;8.25;4.43;;;;;;;13.01;100.00;101223.50;5094346;28;20130;-75
2023/08/08 00:58:50;;;;;;;10.93;4.60;;;;;;;12.99;100.00;101230.94;5093406;28;20048;-75
2023/08/08 01:04:38;;;;;;;7.55;4.43;;;;;;;12.99;100.00;101227.41;5094123;28;20042;-75
2023/08/08 01:07:18;;;;;;;9.13;4.20;;;;;;;13.02;100.00;101230.50;5094153;28;20046;-75
2023/08/08 01:09:48;;;;;;;10.05;4.28;;;;;;;13.03;100.00;101236.69;5092425;28;20556;-75
2023/08/08 01:15:36;;;;;;;9.50;4.43;;;;;;;13.10;100.00;101226.72;5094201;28;20043;-76
2023/08/08 01:18:07;;;;;;;8.38;4.35;;;;;;;13.13;100.00;101223.59;5075060;28;20097;-76
2023/08/08 01:24:00;;;;;;;6.35;4.20;;;;;;;13.09;100.00;101217.03;5094101;28;20080;-76
2023/08/08 01:26:26;;;;;;;12.23;4.53;;;;;;;12.98;100.00;101215.88;5075639;28;20127;-76
2023/08/08 01:28:54;;;;;;;10.10;4.70;;;;;;;12.93;100.00;101212.19;5093772;28;20100;-75
2023/08/08 01:31:20;;;;;;;8.55;5.30;;;;;;;12.93;100.00;101218.38;5092949;28;20136;-75
2023/08/08 01:33:46;;;;;;;11.52;5.10;;;;;;;12.99;100.00;101228.25;5075590;28;20566;-74
2023/08/08 01:36:44;;;;;;;8.57;5.10;;;;;;;13.03;100.00;101220.59;5091726;28;20086;-75
2023/08/08 01:39:16;;;;;;;10.40;5.28;;;;;;;12.99;100.00;101211.31;5089468;28;20058;-75
2023/08/08 01:45:04;;;;;;;14.50;6.18;;;;;;;13.01;100.00;101202.03;5093380;28;20400;-76
2023/08/08 01:50:51;;;;;;;11.88;5.13;;;;;;;12.63;100.00;101212.88;5093999;28;20457;-77
2023/08/08 01:53:16;;;;;;;10.05;5.15;;;;;;;12.49;100.00;101202.47;5093362;28;20033;-76
2023/08/08 01:55:41;;;;;;;12.90;5.43;;;;;;;12.40;100.00;101197.34;5092419;28;20051;-77
2023/08/08 02:05:08;;;;;;;12.82;5.50;;;;;;;12.18;100.00;101196.06;5093450;28;20411;-77
2023/08/08 02:10:55;;;;;;;9.13;5.72;;;;;;;12.02;100.00;101192.03;5093364;28;20046;-76
2023/08/08 02:13:20;;;;;;;16.05;5.97;;;;;;;11.92;100.00;101188.19;5074968;28;20020;-76
2023/08/08 02:15:46;;;;;;;9.97;5.40;;;;;;;11.92;100.00;101198.91;5092182;28;20074;-76
2023/08/08 02:18:11;;;;;;;10.20;6.03;;;;;;;11.89;100.00;101193.97;5074911;28;20642;-76
2023/08/08 02:20:36;;;;;;;11.50;5.90;;;;;;;11.90;100.00;101179.53;5092269;28;20399;-76
2023/08/08 02:23:02;;;;;;;13.63;6.20;;;;;;;11.92;100.00;101186.31;5092638;28;20262;-76
2023/08/08 02:25:27;;;;;;;13.05;6.18;;;;;;;11.96;100.00;101187.53;5092698;28;20032;-77
2023/08/08 02:27:53;;;;;;;11.07;6.63;;;;;;;11.98;100.00;101177.41;5092199;28;20050;-77
2023/08/08 02:33:40;;;;;;;15.95;6.60;;;;;;;12.01;100.00;101168.94;5092995;28;20535;-76
2023/08/08 02:36:05;;;;;;;13.63;6.43;;;;;;;12.02;100.00;101177.81;5074463;28;20040;-77
2023/08/08 02:41:52;;;;;;;12.73;6.32;;;;;;;12.08;100.00;101172.41;5093014;28;20063;-76
2023/08/08 02:44:19;;;;;;;12.98;7.15;;;;;;;12.05;100.00;101156.75;5092411;28;20048;-77
2023/08/08 02:46:44;;;;;;;15.85;6.70;;;;;;;12.11;100.00;101160.41;5091474;28;20040;-77
2023/08/08 02:49:10;;;;;;;12.87;6.63;;;;;;;12.09;100.00;101155.28;5074319;28;20077;-77
2023/08/08 02:59:09;;;;;;;12.82;6.55;;;;;;;12.10;100.00;101148.88;5092655;28;20100;-76
2023/08/08 03:04:56;;;;;;;11.10;5.68;;;;;;;12.13;100.00;101144.13;5092446;28;20101;-77
2023/08/08 03:14:54;;;;;;;15.02;7.35;;;;;;;12.06;100.00;101160.25;5092305;28;20042;-76
2023/08/08 03:17:20;;;;;;;15.02;7.13;;;;;;;12.08;100.00;101158.16;5092089;28;20043;-76
2023/08/08 03:19:45;;;;;;;21.73;8.60;;;;;;;12.15;100.00;101164.34;5091308;28;20048;-76
2023/08/08 03:25:31;;;;;;;17.73;7.43;;;;;;;12.15;100.00;101145.56;5091883;28;20328;-76
2023/08/08 03:31:20;;;;;;;18.90;8.18;;;;;;;12.18;100.00;101155.84;5092548;28;20392;-75
2023/08/08 03:37:06;;;;;;;16.67;7.85;;;;;;;12.16;100.00;101143.72;5092054;28;20104;-77
2023/08/08 03:39:31;;;;;;;21.85;7.40;;;;;;;12.17;100.00;101153.41;5073604;28;20103;-77
2023/08/08 03:41:57;;;;;;;15.63;8.02;;;;;;;12.16;100.00;101149.91;5073459;28;20055;-76
2023/08/08 03:44:22;;;;;;;24.90;8.50;;;;;;;12.18;100.00;101149.69;5091014;28;20044;-77
2023/08/08 03:50:10;;;;;;;20.27;8.48;;;;;;;12.11;100.00;101141.66;5091887;28;20070;-77
2023/08/08 03:52:37;;;;;;;19.92;8.00;;;;;;;12.09;100.00;101154.44;5091479;28;20056;-76
2023/08/08 03:55:03;;;;;;;18.92;9.18;;;;;;;12.03;100.00;101153.47;5091573;28;20051;-76
2023/08/08 04:00:51;;;;;;;19.75;8.68;;;;;;;11.97;100.00;101143.63;5091363;28;20499;-75
2023/08/08 04:03:16;;;;;;;18.05;8.40;;;;;;;11.88;100.00;101144.91;5072651;28;20036;-76
2023/08/08 04:05:49;;;;;;;18.00;8.68;;;;;;;11.85;100.00;101137.28;5091286;28;20038;-76
2023/08/08 04:08:15;;;;;;;18.77;8.30;;;;;;;11.81;100.00;101136.06;5075379;28;20489;-76
2023/08/08 04:10:40;;;;;;;20.48;8.15;;;;;;;11.79;100.00;101140.81;5094127;28;20481;-76
2023/08/08 04:13:06;;;;;;;22.63;9.15;;;;;;;11.85;100.00;101139.13;5094910;28;20090;-77
2023/08/08 04:15:31;;;;;;;21.50;8.60;;;;;;;11.75;100.00;101127.00;5094018;28;20072;-77
2023/08/08 04:17:56;;;;;;;23.85;9.50;;;;;;;11.72;100.00;101124.75;5094913;28;20388;-77
2023/08/08 04:20:22;;;;;;;16.75;8.73;;;;;;;11.76;100.00;101135.88;5076923;28;20371;-77
2023/08/08 04:22:47;;;;;;;19.23;9.55;;;;;;;11.73;100.00;101129.06;5093997;28;20050;-77
2023/08/08 04:28:34;;;;;;;20.27;9.27;;;;;;;11.71;100.00;101133.00;5094999;28;20051;-76
2023/08/08 04:34:21;;;;;;;20.90;9.52;;;;;;;11.76;100.00;101125.16;5094725;28;20373;-77
2023/08/08 04:40:08;;;;;;;22.38;9.10;;;;;;;11.94;100.00;101140.53;5094557;28;20170;-77
2023/08/08 04:42:33;;;;;;;21.33;10.65;;;;;;;11.99;100.00;101138.84;5075596;28;20139;-76
2023/08/08 04:44:59;;;;;;;23.85;8.73;;;;;;;12.04;100.00;101143.56;5076099;28;20024;-75
2023/08/08 04:50:46;;;;;;;19.38;9.40;;;;;;;12.15;100.00;101140.22;5094319;28;20289;-77
2023/08/08 04:53:12;;;;;;;21.90;8.65;;;;;;;12.16;100.00;101141.84;5094268;28;20056;-77
2023/08/08 04:55:37;;;;;;;19.83;9.20;;;;;;;12.14;100.00;101135.84;5093519;28;20079;-77
2023/08/08 04:58:02;;;;;;;16.48;9.05;;;;;;;12.19;100.00;101137.91;5076108;28;20486;-76
2023/08/08 05:00:28;;;;;;;23.92;9.68;;;;;;;12.24;100.00;101132.72;5075117;28;20044;-76
2023/08/08 05:02:53;;;;;;;24.70;10.20;;;;;;;12.35;100.00;101134.69;5076071;28;20510;-76
2023/08/08 05:08:40;;;;;;;27.20;9.85;;;;;;;12.64;100.00;101139.38;5094150;28;20043;-76
2023/08/08 05:11:05;;;;;;;16.05;8.65;;;;;;;12.79;100.00;101140.91;5076108;28;20035;-77
2023/08/08 05:13:30;;;;;;;18.75;8.98;;;;;;;12.92;100.00;101132.72;5075141;28;20161;-77
2023/08/08 05:15:56;;;;;;;15.83;8.23;;;;;;;13.06;100.00;101147.66;5093944;28;20067;-76
2023/08/08 05:18:21;;;;;;;20.00;8.80;;;;;;;13.27;100.00;101141.03;5075574;28;20754;-75
2023/08/08 05:24:08;;;;;;;20.25;8.30;;;;;;;13.98;100.00;101134.13;5094304;28;20050;-77
2023/08/08 05:26:33;;;;;;;17.37;8.20;;;;;;;14.24;100.00;101136.44;5092875;28;20040;-76
2023/08/08 05:32:20;;;;;;;17.10;7.50;;;;;;;14.94;100.00;101136.50;5093740;28;20320;-78
2023/08/08 05:38:07;;;;;;;15.85;7.50;;;;;;;15.66;100.00;101155.84;5093758;28;20808;-78
2023/08/08 05:40:35;;;;;;;14.45;6.13;;;;;;;15.96;100.00;101152.91;5092588;28;20044;-77
2023/08/08 05:43:00;;;;;;;13.65;6.65;;;;;;;16.22;100.00;101159.56;5093464;28;20027;-77
2023/08/08 05:45:25;;;;;;;15.43;7.30;;;;;;;16.39;100.00;101156.88;5093367;28;20032;-76
2023/08/08 05:51:12;;;;;;;16.80;6.60;;;;;;;16.14;100.00;101156.44;5094294;28;20077;-77
2023/08/08 05:53:38;;;;;;;15.23;6.90;;;;;;;15.85;100.00;101155.63;5092960;28;20028;-77
2023/08/08 05:59:25;;;;;;;18.73;7.32;;;;;;;16.47;100.00;101147.53;5093972;28;20043;-77
2023/08/08 06:05:12;;;;;;;15.07;6.85;;;;;;;17.07;100.00;101157.69;5093790;28;20059;-77
2023/08/08 06:10:59;;;;;;;12.30;5.57;;;;;;;18.57;100.00;101151.47;5093677;28;20054;-77
2023/08/08 06:13:24;;;;;;;9.00;5.35;;;;;;;18.68;100.00;101157.81;5092488;28;20044;-78
2023/08/08 06:19:12;;;;;;;11.95;6.22;;;;;;;17.71;100.00;101166.91;5093353;28;20392;-77
2023/08/08 06:24:58;;;;;;;13.77;6.50;;;;;;;17.24;100.00;101171.94;5092871;28;20043;-76
2023/08/08 06:30:46;;;;;;;12.07;6.10;;;;;;;17.20;100.00;101178.94;5091428;28;20827;-76
2023/08/08 06:33:11;;;;;;;11.20;5.90;;;;;;;17.12;100.00;101171.25;5092013;28;20048;-76
2023/08/08 06:38:58;;;;;;;13.07;6.38;;;;;;;17.25;100.00;101168.19;5092354;28;20039;-75
2023/08/08 06:44:44;;;;;;;14.65;6.32;;;;;;;17.05;100.00;101174.09;5092626;28;20328;-76
2023/08/08 06:50:31;;;;;;;13.90;6.20;;;;;;;17.92;100.00;101162.50;5092362;28;20043;-78
2023/08/08 06:56:18;;;;;;;11.07;6.03;;;;;;;19.50;100.00;101184.31;5092165;28;20072;-75
2023/08/08 07:02:05;;;;;;;11.05;5.80;;;;;;;19.83;100.00;101187.69;5092423;28;20744;-77
2023/08/08 07:04:31;;;;;;;11.23;6.00;;;;;;;20.32;100.00;101181.81;5091459;28;20067;-79
2023/08/08 07:10:19;;;;;;;11.05;5.65;;;;;;;21.56;98.92;101180.28;5092548;28;20043;-76
2023/08/08 07:16:06;;;;;;;10.05;5.60;;;;;;;22.97;90.53;101181.50;5091675;28;20086;-77
2023/08/08 07:21:53;;;;;;;13.00;5.30;;;;;;;24.11;81.48;101184.19;5091990;28;20277;-77
2023/08/08 07:27:40;;;;;;;8.90;4.20;;;;;;;22.79;84.98;101178.38;5092463;28;20043;-75
2023/08/08 07:33:27;;;;;;;11.07;4.95;;;;;;;21.15;92.24;101171.44;5092090;28;20050;-75
2023/08/08 07:35:52;;;;;;;11.35;4.97;;;;;;;21.32;91.21;101177.41;5091080;28;20400;-76
2023/08/08 07:45:01;;;;;;;9.20;4.65;;;;;;;21.26;95.32;101170.34;5091797;28;20083;-77
2023/08/08 07:47:26;;;;;;;12.10;5.00;;;;;;;21.95;90.50;101176.81;5090965;28;20071;-75
2023/08/08 07:53:13;;;;;;;9.10;3.95;;;;;;;21.70;85.18;101177.81;5091779;28;20046;-78
2023/08/08 07:59:01;;;;;;;7.72;3.28;;;;;;;22.49;79.84;101170.47;5092058;28;20078;-81
2023/08/08 08:04:48;;;;;;;7.82;3.63;;;;;;;20.94;85.93;101170.69;5092039;28;20055;-78
2023/08/08 08:10:35;;;;;;;7.53;3.67;;;;;;;20.90;85.28;101156.00;5093778;28;20047;-79
2023/08/08 08:16:22;;;;;;;10.88;3.28;;;;;;;21.26;89.35;101156.75;5091824;28;20047;-77
2023/08/08 08:22:09;;;;;;;11.18;3.72;;;;;;;22.84;79.20;101164.75;5091502;28;20131;-79
2023/08/08 08:27:56;;;;;;;5.13;3.58;;;;;;;23.56;74.84;101172.94;5091550;28;20363;-77
2023/08/08 08:33:43;;;;;;;5.80;3.05;;;;;;;23.46;71.92;101178.50;5091686;28;20090;-79
2023/08/08 08:39:30;;;;;;;8.23;3.75;;;;;;;22.13;82.59;101181.66;5091158;28;20335;-77
2023/08/08 08:45:21;;;;;;;10.50;4.00;;;;;;;21.57;86.37;101170.22;5091327;28;20468;-76
2023/08/08 08:51:49;;;;;;;7.63;3.97;;;;;;;21.86;83.92;101164.91;5091355;28;20051;-74
2023/08/08 08:57:37;;;;;;;9.32;3.45;;;;;;;23.22;76.97;101177.69;5094888;28;20622;-78
2023/08/08 09:03:24;;;;;;;7.65;3.72;;;;;;;20.78;84.33;101179.13;5094500;28;20087;-73
2023/08/08 09:09:12;;;;;;;12.48;3.60;;;;;;;19.47;95.59;101181.31;5094321;28;20042;-75
2023/08/08 09:15:01;;;;;;;5.88;3.55;;;;;;;18.80;97.91;101177.41;5093994;28;20051;-72
2023/08/08 09:20:49;;;;;;;8.05;3.13;;;;;;;18.77;100.00;101183.31;5094344;28;20116;-72
2023/08/08 09:26:36;;;;;;;6.85;3.42;;;;;;;19.23;96.46;101174.69;5093922;28;20050;-73
2023/08/08 09:32:29;;;;;;;8.30;3.40;;;;;;;19.06;98.36;101174.84;5094103;28;20035;-76
2023/08/08 09:38:16;;;;;;;8.68;3.25;;;;;;;19.22;97.95;101189.31;5094164;28;20042;-73
2023/08/08 09:40:42;;;;;;;5.10;2.70;;;;;;;19.37;96.64;101187.50;5093891;28;20016;-73
2023/08/08 09:43:08;;;;;;;7.40;3.05;;;;;;;19.41;96.41;101187.78;5092807;28;20296;-74
2023/08/08 09:48:55;;;;;;;5.45;2.92;;;;;;;20.04;95.72;101189.38;5093688;28;20042;-74
2023/08/08 09:54:42;;;;;;;6.72;3.13;;;;;;;20.37;94.39;101184.53;5093614;28;20467;-75
2023/08/08 10:00:30;;;;;;;5.85;3.22;;;;;;;20.44;91.72;101178.88;5093338;28;20557;-73
2023/08/08 10:06:17;;;;;;;9.75;2.90;;;;;;;20.88;88.20;101184.56;5092839;28;20042;-74
2023/08/08 10:12:06;;;;;;;4.50;2.35;;;;;;;20.79;87.79;101176.13;5092644;28;20073;-75
2023/08/08 10:17:57;;;;;;;4.75;2.38;;;;;;;20.20;83.51;101176.63;5093251;28;20113;-74
2023/08/08 10:23:44;;;;;;;5.20;2.08;;;;;;;19.91;84.87;101184.47;5092914;28;20436;-75
2023/08/08 10:29:33;;;;;;;8.60;2.65;;;;;;;19.17;87.69;101196.34;5092734;28;20050;-73
2023/08/08 10:35:20;;;;;;;5.35;2.50;;;;;;;18.71;92.17;101199.81;5092946;28;20066;-73
2023/08/08 10:41:13;;;;;;;9.20;2.65;;;;;;;18.69;94.02;101191.13;5092783;28;20047;-73
2023/08/08 10:47:00;;;;;;;5.00;2.70;;;;;;;19.23;93.12;101174.69;5092499;28;20051;-73
2023/08/08 10:52:54;;;;;;;6.97;2.90;;;;;;;19.62;91.91;101183.28;5092640;28;20065;-72
2023/08/08 10:55:33;;;;;;;10.18;3.22;;;;;;;20.11;90.22;101180.97;5091860;28;20484;-72
2023/08/08 11:01:25;;;;;;;4.47;2.72;;;;;;;21.07;84.53;101185.59;5092416;28;20415;-74
2023/08/08 11:07:14;;;;;;;6.85;2.95;;;;;;;21.93;84.43;101184.47;5092275;28;20043;-73
2023/08/08 11:16:35;;;;;;;8.95;3.65;;;;;;;21.47;86.59;101171.09;5092113;28;20050;-72
2023/08/08 11:22:22;;;;;;;11.25;3.30;;;;;;;20.90;85.48;101155.19;5091981;28;20092;-73
2023/08/08 11:24:49;;;;;;;3.65;3.22;;;;;;;20.35;88.35;101160.38;5091161;28;20055;-73
2023/08/08 11:30:42;;;;;;;6.07;2.90;;;;;;;20.55;86.15;101159.59;5091497;28;20123;-74
2023/08/08 11:36:30;;;;;;;7.13;2.67;;;;;;;20.61;83.19;101152.25;5091921;28;20550;-77
2023/08/08 11:42:18;;;;;;;3.28;2.33;;;;;;;19.84;88.05;101167.63;5091782;28;20093;-75
2023/08/08 11:48:05;;;;;;;5.10;2.42;;;;;;;19.60;88.11;101163.75;5091944;28;20059;-75
2023/08/08 11:53:53;;;;;;;5.22;2.15;;;;;;;22.08;74.78;101167.25;5092214;28;20550;-77
2023/08/08 11:59:40;;;;;;;4.00;2.10;;;;;;;23.29;70.84;101178.16;5092076;28;20039;-75
2023/08/08 12:05:28;;;;;;;2.97;2.10;;;;;;;23.05;66.61;101162.59;5091802;28;20514;-76
2023/08/08 12:11:15;;;;;;;3.28;1.92;;;;;;;20.90;76.86;101156.00;5091907;28;20061;-75
2023/08/08 12:17:03;;;;;;;3.40;1.67;;;;;;;20.24;80.30;101153.31;5091562;28;20047;-74
2023/08/08 12:22:50;;;;;;;2.67;1.70;;;;;;;21.34;71.96;101152.63;5091690;28;20043;-76
2023/08/08 12:28:37;;;;;;;4.47;1.50;;;;;;;21.72;67.36;101147.56;5091086;28;20366;-75
2023/08/08 12:34:24;;;;;;;2.38;1.40;;;;;;;22.46;68.35;101165.59;5094904;28;20043;-75
2023/08/08 12:40:11;;;;;;;4.95;1.70;;;;;;;23.10;60.15;101146.16;5094695;28;20280;-75
2023/08/08 12:45:59;;;;;;;3.60;1.60;;;;;;;24.89;54.43;101161.59;5094679;28;20038;-76
2023/08/08 12:48:24;;;;;;;3.28;1.40;;;;;;;24.96;54.29;101145.59;5093688;28;20048;-75
2023/08/08 12:54:12;;;;;;;3.08;1.30;;;;;;;24.70;51.85;101138.97;5093640;28;20289;-75
2023/08/08 13:03:21;;;;;;;1.45;1.20;;;;;;;22.85;58.52;101132.81;5094376;28;20108;-74
2023/08/08 13:09:08;;;;;;;3.03;1.40;;;;;;;23.23;61.23;101135.66;5094249;28;20047;-74
2023/08/08 13:14:55;;;;;;;2.78;1.45;;;;;;;24.18;57.27;101142.81;5093812;28;20840;-73
2023/08/08 13:20:42;;;;;;;3.75;1.20;;;;;;;22.63;59.09;101140.66;5093965;28;20066;-71
2023/08/08 13:26:29;;;;;;;3.03;1.50;;;;;;;22.12;61.73;101144.59;5093822;28;20065;-71
2023/08/08 13:32:16;;;;;;;2.97;1.75;;;;;;;21.47;69.27;101149.31;5094054;28;20370;-73
2023/08/08 13:38:03;;;;;;;2.97;1.80;;;;;;;21.59;66.70;101146.25;5093673;28;20630;-74
2023/08/08 13:43:50;;;;;;;2.05;1.70;;;;;;;21.70;68.46;101169.63;5093058;28;20078;-73
2023/08/08 13:49:37;;;;;;;2.83;1.60;;;;;;;20.98;68.09;101163.59;5093897;28;20043;-73
2023/08/08 13:55:26;;;;;;;2.72;1.30;;;;;;;20.56;66.89;101157.69;5093631;28;20071;-74
2023/08/08 14:01:13;;;;;;;2.67;1.73;;;;;;;20.86;67.53;101143.25;5094442;28;20511;-77
2023/08/08 14:07:00;;;;;;;3.63;1.70;;;;;;;21.30;68.83;101165.16;5093984;28;20654;-78
2023/08/08 14:12:47;;;;;;;3.88;1.67;;;;;;;21.29;67.89;101156.19;5094603;28;20277;-79
2023/08/08 14:18:34;;;;;;;4.00;1.60;;;;;;;21.06;68.96;101159.50;5093653;28;20042;-76
2023/08/08 14:21:00;;;;;;;3.00;1.45;;;;;;;21.04;64.42;101146.16;5075531;28;20118;-78
2023/08/08 14:26:48;;;;;;;2.97;1.60;;;;;;;20.91;65.16;101148.66;5092886;28;20066;-79
2023/08/08 14:32:35;;;;;;;2.92;1.48;;;;;;;20.73;68.75;101147.31;5092896;28;20081;-74
2023/08/08 14:38:24;;;;;;;2.28;1.67;;;;;;;20.73;71.59;101147.31;5092782;28;20322;-77
2023/08/08 14:44:11;;;;;;;4.20;1.90;;;;;;;21.13;69.72;101132.84;5094193;28;20051;-77
2023/08/08 14:49:58;;;;;;;5.70;1.85;;;;;;;20.80;68.66;101145.13;5095649;28;20358;-75
2023/08/08 14:55:47;;;;;;;1.98;1.60;;;;;;;20.89;66.12;101137.25;5093565;28;20100;-77
2023/08/08 15:01:34;;;;;;;6.70;1.60;;;;;;;21.04;64.42;101150.78;5093084;28;20510;-72
2023/08/08 15:07:21;;;;;;;2.65;1.60;;;;;;;20.77;69.68;101156.56;5092261;28;20323;-75
2023/08/08 15:13:08;;;;;;;4.88;2.17;;;;;;;20.59;70.00;101155.22;5092348;28;20055;-75
2023/08/08 15:18:55;;;;;;;2.55;1.70;;;;;;;20.40;72.57;101162.28;5092220;28;20626;-76
2023/08/08 15:21:21;;;;;;;3.90;1.80;;;;;;;20.43;72.48;101167.19;5091297;28;20040;-77
2023/08/08 15:27:08;;;;;;;2.20;1.77;;;;;;;20.18;76.61;101158.97;5091309;28;20542;-72
2023/08/08 15:32:55;;;;;;;5.28;2.05;;;;;;;20.16;76.97;101167.41;5092351;28;20110;-77
2023/08/08 15:38:42;;;;;;;3.20;1.88;;;;;;;19.91;80.93;101175.50;5092445;28;20081;-73
2023/08/08 15:44:28;;;;;;;3.90;1.88;;;;;;;19.83;80.83;101174.13;5091667;28;20351;-74
2023/08/08 15:50:15;;;;;;;3.92;2.10;;;;;;;19.95;82.43;101165.72;5091570;28;20327;-72
2023/08/08 15:56:02;;;;;;;4.72;2.10;;;;;;;20.24;80.72;101161.47;5091499;28;20277;-73
2023/08/08 16:01:49;;;;;;;3.63;2.22;;;;;;;19.93;82.18;101168.72;5091618;28;20090;-73
2023/08/08 16:07:36;;;;;;;5.72;1.95;;;;;;;19.77;85.02;101177.91;5095038;28;20797;-72
2023/08/08 16:13:23;;;;;;;6.30;2.53;;;;;;;19.55;84.39;101163.72;5095399;28;20097;-75
2023/08/08 16:19:11;;;;;;;4.07;2.28;;;;;;;19.56;86.15;101179.75;5095244;28;20100;-74
2023/08/08 16:24:58;;;;;;;3.42;2.00;;;;;;;19.31;85.70;101171.44;5094639;28;20547;-75
2023/08/08 16:30:44;;;;;;;3.55;2.22;;;;;;;19.15;87.03;101168.69;5094396;28;20281;-71
2023/08/08 16:36:31;;;;;;;4.10;2.30;;;;;;;19.21;89.03;101164.09;5094307;28;20331;-71
2023/08/08 16:42:19;;;;;;;5.68;2.72;;;;;;;19.31;88.94;101158.72;5094470;28;20089;-74
2023/08/08 16:48:07;;;;;;;4.10;2.80;;;;;;;19.18;89.20;101145.66;5094690;28;20141;-73
2023/08/08 16:53:53;;;;;;;5.38;2.83;;;;;;;19.13;93.62;101140.19;5094259;28;20789;-74
2023/08/08 16:59:40;;;;;;;7.70;3.22;;;;;;;18.63;100.00;101138.00;5094643;28;20494;-72
2023/08/08 17:05:27;;;;;;;3.55;2.38;;;;;;;18.49;99.18;101154.63;5093781;28;20088;-72
2023/08/08 17:11:15;;;;;;;6.05;2.67;;;;;;;18.08;100.00;101150.78;5094063;28;20085;-74
2023/08/08 17:17:03;;;;;;;4.93;2.67;;;;;;;17.81;100.00;101156.19;5093747;28;20130;-72
2023/08/08 17:22:49;;;;;;;4.72;2.42;;;;;;;17.75;100.00;101150.97;5094143;28;20720;-74
2023/08/08 17:28:36;;;;;;;6.10;2.88;;;;;;;17.63;100.00;101151.88;5093845;28;20043;-73
2023/08/08 17:34:24;;;;;;;6.20;3.13;;;;;;;17.32;100.00;101144.47;5093607;28;20123;-73
2023/08/08 17:40:10;;;;;;;6.15;3.10;;;;;;;16.64;100.00;101137.56;5093883;28;20055;-73
2023/08/08 17:45:57;;;;;;;7.20;3.20;;;;;;;16.31;100.00;101124.88;5093628;28;20055;-73
2023/08/08 17:51:45;;;;;;;4.20;2.80;;;;;;;16.25;100.00;101129.41;5093574;28;20071;-74
2023/08/08 17:57:32;;;;;;;4.78;2.90;;;;;;;16.08;100.00;101137.47;5093680;28;20081;-73
2023/08/08 18:03:20;;;;;;;5.15;2.50;;;;;;;15.76;100.00;101147.94;5093460;28;20090;-74
2023/08/08 18:09:07;;;;;;;4.57;2.95;;;;;;;15.50;100.00;101149.28;5093575;28;20131;-75
2023/08/08 18:14:54;;;;;;;5.72;2.97;;;;;;;15.31;100.00;101133.50;5093256;28;20515;-78
2023/08/08 18:20:41;;;;;;;4.72;2.97;;;;;;;14.98;100.00;101129.56;5093361;28;20074;-75
2023/08/08 18:26:29;;;;;;;7.60;3.53;;;;;;;14.76;100.00;101115.09;5092935;28;20085;-75
2023/08/08 18:32:16;;;;;;;4.82;3.25;;;;;;;14.70;100.00;101124.91;5092800;28;20583;-75
2023/08/08 18:38:04;;;;;;;5.53;2.70;;;;;;;14.67;100.00;101124.56;5092739;28;20333;-75
2023/08/08 18:43:51;;;;;;;4.05;2.92;;;;;;;14.49;100.00;101126.31;5092581;28;20043;-77
2023/08/08 18:49:38;;;;;;;5.03;3.10;;;;;;;14.39;100.00;101111.75;5092898;28;20127;-79
2023/08/08 18:55:24;;;;;;;6.03;3.08;;;;;;;14.49;100.00;101106.69;5092686;28;20050;-78
2023/08/08 19:01:11;;;;;;;2.92;2.30;;;;;;;14.46;100.00;101107.97;5091893;28;20079;-77
2023/08/08 19:06:58;;;;;;;4.93;2.90;;;;;;;14.42;100.00;101093.28;5092309;28;20035;-79
2023/08/08 19:12:45;;;;;;;2.88;2.35;;;;;;;14.32;100.00;101098.44;5092342;28;20277;-79
2023/08/08 19:18:33;;;;;;;3.45;2.28;;;;;;;14.19;100.00;101091.41;5092468;28;20132;-80
2023/08/08 19:24:20;;;;;;;3.55;2.20;;;;;;;14.21;100.00;101081.22;5092321;28;20051;-80
2023/08/08 19:30:07;;;;;;;3.10;2.53;;;;;;;14.29;100.00;101066.63;5092111;28;20365;-80
2023/08/08 19:35:56;;;;;;;3.50;2.67;;;;;;;14.26;100.00;101078.66;5092007;28;20089;-76
2023/08/08 19:41:43;;;;;;;4.82;2.60;;;;;;;14.25;100.00;101081.59;5092274;28;20055;-80
2023/08/08 19:47:30;;;;;;;3.45;2.90;;;;;;;14.11;100.00;101070.22;5091713;28;20464;-78
2023/08/08 19:53:17;;;;;;;5.25;3.70;;;;;;;14.09;100.00;101072.31;5091569;28;20174;-81
2023/08/08 19:59:04;;;;;;;6.78;5.07;;;;;;;14.20;100.00;101062.63;5091960;28;20039;-79
2023/08/08 20:04:51;;;;;;;5.72;5.13;;;;;;;14.19;100.00;101055.63;5091813;28;20392;-79
2023/08/08 20:10:38;;;;;;;7.90;5.65;;;;;;;14.11;100.00;101040.63;5091723;28;20051;-80
2023/08/08 20:16:26;;;;;;;7.45;6.65;;;;;;;14.08;100.00;101024.13;5091609;28;20039;-81
2023/08/08 20:22:14;;;;;;;9.25;6.75;;;;;;;14.16;100.00;101013.84;5091523;28;20051;-82
2023/08/08 20:28:00;;;;;;;8.48;6.68;;;;;;;14.16;100.00;101015.72;5091610;28;20047;-79
2023/08/08 20:33:48;;;;;;;8.95;6.47;;;;;;;14.19;100.00;101015.28;5091216;28;20281;-82
2023/08/08 20:39:35;;;;;;;7.20;5.80;;;;;;;14.23;100.00;101008.38;5091171;28;20086;-80
2023/08/08 20:45:22;;;;;;;6.50;5.70;;;;;;;14.17;100.00;101012.81;5091674;28;20031;-80
2023/08/08 20:51:09;;;;;;;6.10;5.00;;;;;;;14.28;100.00;101016.56;5093107;28;20047;-77
2023/08/08 20:56:57;;;;;;;5.90;4.57;;;;;;;14.20;100.00;101015.03;5094378;28;20304;-78
2023/08/08 21:02:44;;;;;;;6.00;5.40;;;;;;;14.16;100.00;101026.47;5094784;28;20097;-77
2023/08/08 21:08:31;;;;;;;6.03;5.35;;;;;;;14.13;100.00;101008.94;5094250;28;20305;-81
2023/08/08 21:14:18;;;;;;;5.28;4.63;;;;;;;14.19;100.00;100988.38;5094282;28;20035;-80
2023/08/08 21:20:06;;;;;;;6.75;4.93;;;;;;;14.12;100.00;100963.47;5094447;28;20043;-80
2023/08/08 21:25:53;;;;;;;5.45;4.68;;;;;;;14.09;100.00;100986.25;5094259;28;20040;-81
2023/08/08 21:31:40;;;;;;;7.28;5.28;;;;;;;14.08;100.00;100964.97;5093854;28;20070;-79
2023/08/08 21:37:27;;;;;;;5.47;4.68;;;;;;;14.11;100.00;100962.63;5093669;28;20091;-78
2023/08/08 21:43:15;;;;;;;7.03;4.93;;;;;;;14.08;100.00;100956.91;5094879;28;20085;-81
2023/08/08 21:49:02;;;;;;;8.60;5.07;;;;;;;14.06;100.00;100946.41;5093539;28;20086;-80
2023/08/08 21:54:49;;;;;;;7.13;5.22;;;;;;;14.10;100.00;100936.81;5094029;28;20058;-81
2023/08/08 22:00:36;;;;;;;7.72;5.70;;;;;;;14.15;100.00;100938.78;5093889;28;20549;-79
2023/08/08 22:06:23;;;;;;;8.18;5.47;;;;;;;14.14;100.00;100946.03;5093830;28;20043;-81
2023/08/08 22:12:10;;;;;;;6.90;6.00;;;;;;;14.11;100.00;100964.50;5093832;28;20288;-81
2023/08/08 22:18:17;;;;;;;8.43;6.28;;;;;;;14.12;100.00;100958.91;5094087;28;20031;-81
2023/08/08 22:24:04;;;;;;;6.22;4.55;;;;;;;14.17;100.00;100964.41;5093721;28;20055;-81
2023/08/08 22:29:51;;;;;;;3.50;2.70;;;;;;;14.08;100.00;100973.88;5093715;28;20052;-82
2023/08/08 22:35:39;;;;;;;2.42;2.20;;;;;;;13.87;100.00;100983.31;5093531;28;20395;-82
2023/08/08 22:41:26;;;;;;;3.40;2.22;;;;;;;13.56;100.00;100999.72;5093076;28;20085;-81